Eira — OJJP — position and weather

sailwx.info

Track history (hours):
 
Tides and Currents Weather Stations Pressure Air Temp Water Temp Dewpoint Dewpoint Depression Visibility Wind Speed Wind Dir Waves Ship Positions

Eira

Last reported at 2014-Sep-18 00:19 UTC. Time now 2014-Sep-18 09:44 UTC.
Position N 60°02' E 027°18'.

Length 157 m; draft 6.1 m.

Type: Cargo ship. MMSI: 230935000.

Date/timePositionNaut miles runAvg speedWind from/ knotsBaromVisibWave heightAir tempDewpointWater temp
2014-Sep-18 00:19N 60°02' E 027°18'7 9.0
2014-Sep-17 23:29N 59°58' E 027°05'9 8.7
2014-Sep-17 22:28N 59°59' E 026°48'8 8.8
2014-Sep-17 21:34N 59°58' E 026°32'8 7.8
2014-Sep-17 20:34N 60°06' E 026°29'2 2.3
2014-Sep-17 19:31N 60°08' E 026°29'0 0.0
2014-Sep-17 18:31N 60°08' E 026°29'0 0.0
2014-Sep-17 17:31N 60°08' E 026°29'0 0.0
2014-Sep-17 16:31N 60°08' E 026°29'0 0.0
2014-Sep-17 15:31N 60°08' E 026°29'0 0.0
2014-Sep-17 14:31N 60°08' E 026°29'0 0.0
2014-Sep-17 13:31N 60°08' E 026°29'0 0.0
2014-Sep-17 12:34N 60°08' E 026°29'0 0.0
2014-Sep-17 11:31N 60°09' E 026°29'0 0.0
2014-Sep-17 10:31N 60°08' E 026°29'0 0.0
2014-Sep-17 09:31N 60°09' E 026°29'0 0.0
2014-Sep-17 08:22N 60°09' E 026°30'0 0.0
2014-Sep-17 07:34N 60°09' E 026°30'0 0.0
2014-Sep-17 06:31N 60°09' E 026°30'0 0.0
2014-Sep-17 05:31N 60°09' E 026°30'0 0.0
2014-Sep-17 04:31N 60°09' E 026°30'0 0.0
2014-Sep-17 03:31N 60°09' E 026°30'0 0.0
2014-Sep-17 02:25N 60°09' E 026°30'0 0.0
2014-Sep-17 01:31N 60°08' E 026°30'0 0.0
2014-Sep-17 00:31N 60°08' E 026°30'0 0.0
2014-Sep-16 23:31N 60°08' E 026°30'0 0.0
2014-Sep-16 22:31N 60°09' E 026°30'0 0.0
2014-Sep-16 21:31N 60°09' E 026°30'0 0.0
2014-Sep-16 20:31N 60°09' E 026°30'0 0.0
2014-Sep-16 19:33N 60°09' E 026°30'4 3.9
2014-Sep-16 18:32N 60°07' E 026°37'1110.1
2014-Sep-16 17:29N 60°01' E 026°54'97 9.5
2014-Sep-16 07:13N 59°54' E 030°08'2 2.4
2014-Sep-16 06:33N 59°53' E 030°11'0 0.0
2014-Sep-16 05:33N 59°53' E 030°11'0 0.0
2014-Sep-16 04:31N 59°53' E 030°11'0 0.0
2014-Sep-16 03:31N 59°53' E 030°11'0 0.0
2014-Sep-16 02:31N 59°53' E 030°11'0 0.0
2014-Sep-16 01:31N 59°53' E 030°11'0 0.0
2014-Sep-16 00:31N 59°53' E 030°11'0 0.0
2014-Sep-15 23:31N 59°53' E 030°11'0 0.0
2014-Sep-15 21:31N 59°53' E 030°11'0 0.0
2014-Sep-15 20:31N 59°53' E 030°11'0 0.0
2014-Sep-15 19:31N 59°53' E 030°11'0 0.0
2014-Sep-15 18:31N 59°53' E 030°11'0 0.0
2014-Sep-15 17:28N 59°53' E 030°11'0 0.0
2014-Sep-15 16:28N 59°53' E 030°11'0 0.0
2014-Sep-15 15:28N 59°53' E 030°11'0 0.0
2014-Sep-15 14:25N 59°53' E 030°11'0 0.0
2014-Sep-15 13:10N 59°53' E 030°11'0 0.0
2014-Sep-15 12:31N 59°53' E 030°11'0 0.0
2014-Sep-15 10:28N 59°53' E 030°11'0 0.0
2014-Sep-15 09:10N 59°53' E 030°11'0 0.0
2014-Sep-15 04:31N 59°53' E 030°11'0 0.0
2014-Sep-15 03:31N 59°53' E 030°11'0 0.0
2014-Sep-15 02:28N 59°53' E 030°11'3 3.2
2014-Sep-15 01:32N 59°54' E 030°06'92 4.1
2014-Sep-14 03:21N 59°58' E 027°03'910.0
2014-Sep-14 02:29N 59°59' E 026°45'9 9.5
2014-Sep-14 01:33N 59°58' E 026°28'50 9.7
2014-Sep-13 20:26N 59°46' E 024°52'910.0
2014-Sep-13 19:33N 59°45' E 024°35'10 9.6
2014-Sep-13 18:33N 59°43' E 024°16'9 9.3
2014-Sep-13 17:33N 59°42' E 023°58'9 9.2
2014-Sep-13 16:32N 59°40' E 023°39'10 9.3
2014-Sep-13 15:29N 59°39' E 023°20'8 8.9
2014-Sep-13 14:33N 59°37' E 023°04'12 9.1
2014-Sep-13 13:17N 59°36' E 022°42'25 9.1
2014-Sep-13 10:33N 59°34' E 021°52'9 9.0
2014-Sep-13 09:34N 59°34' E 021°35'9 8.9
2014-Sep-13 08:33N 59°41' E 021°23'9 9.0
2014-Sep-13 07:33N 59°50' E 021°23'4 0.1
2014-Sep-12 06:34N 59°52' E 021°28'1010.2
2014-Sep-12 05:34N 59°43' E 021°21'1212.1
2014-Sep-12 04:34N 59°34' E 021°38'4312.3
2014-Sep-12 01:04N 59°39' E 023°02'713.3
2014-Sep-12 00:33N 59°40' E 023°16'1312.7
2014-Sep-11 23:33N 59°43' E 023°41'1312.7
2014-Sep-11 22:34N 59°45' E 024°05'1312.8
2014-Sep-11 21:34N 59°48' E 024°30'2512.7
2014-Sep-11 19:33N 59°53' E 025°20'1312.6
2014-Sep-11 18:33N 59°56' E 025°44'1312.7
2014-Sep-11 17:33N 59°59' E 026°09'1312.8
2014-Sep-11 16:33N 60°01' E 026°34'1312.8
2014-Sep-11 15:33N 59°60' E 026°59'2 0.1
2014-Sep-09 22:26N 59°58' E 027°02'1011.6
2014-Sep-09 21:33N 59°59' E 026°42'1211.8
2014-Sep-09 20:33N 59°57' E 026°19'4110.3
2014-Sep-09 16:33N 60°04' E 024°58'7 2.3
2014-Sep-09 13:33N 60°11' E 024°58'0 0.0
2014-Sep-09 12:33N 60°11' E 024°58'0 0.0
2014-Sep-09 11:24N 60°11' E 024°58'0 0.0
2014-Sep-09 06:24N 60°11' E 024°58'0 0.0
2014-Sep-09 05:24N 60°11' E 024°58'0 0.0
2014-Sep-09 04:33N 60°11' E 024°58'0 0.0
2014-Sep-09 03:30N 60°11' E 024°58'0 0.0
2014-Sep-08 19:24N 60°11' E 024°58'0 0.0
2014-Sep-08 17:18N 60°11' E 024°58'0 0.0
2014-Sep-08 16:15N 60°11' E 024°58'0 0.0
2014-Sep-08 15:33N 60°11' E 024°58'0 0.0
2014-Sep-08 14:30N 60°11' E 024°58'0 0.0
2014-Sep-08 13:30N 60°11' E 024°58'2 2.5
2014-Sep-08 12:33N 60°09' E 024°60'10 9.6
2014-Sep-08 11:34N 59°60' E 025°06'1212.0
2014-Sep-08 10:33N 59°57' E 025°29'1313.0
2014-Sep-08 09:33N 59°57' E 025°55'1413.7
2014-Sep-08 08:33N 59°60' E 026°22'1413.6
2014-Sep-08 07:33N 60°00' E 026°49'1313.0
2014-Sep-08 06:32N 60°03' E 027°15'  
Track history (hours):
 
Tides and Currents Weather Stations Pressure Air Temp Water Temp Dewpoint Dewpoint Depression Visibility Wind Speed Wind Dir Waves Ship Positions

Eira

Last reported at 2014-Sep-18 00:19 UTC. Time now 2014-Sep-18 09:44 UTC.
Position N 60°02' E 027°18'.

Length 157 m; draft 6.1 m.

Type: Cargo ship. MMSI: 230935000.

Date/timePositionNaut miles runAvg speedWind from/ knotsBaromVisibWave heightAir tempDewpointWater temp
2014-Sep-18 00:19N 60°02' E 027°18'7 9.0
2014-Sep-17 23:29N 59°58' E 027°05'9 8.7
2014-Sep-17 22:28N 59°59' E 026°48'8 8.8
2014-Sep-17 21:34N 59°58' E 026°32'8 7.8
2014-Sep-17 20:34N 60°06' E 026°29'2 2.3
2014-Sep-17 19:31N 60°08' E 026°29'0 0.0
2014-Sep-17 18:31N 60°08' E 026°29'0 0.0
2014-Sep-17 17:31N 60°08' E 026°29'0 0.0
2014-Sep-17 16:31N 60°08' E 026°29'0 0.0
2014-Sep-17 15:31N 60°08' E 026°29'0 0.0
2014-Sep-17 14:31N 60°08' E 026°29'0 0.0
2014-Sep-17 13:31N 60°08' E 026°29'0 0.0
2014-Sep-17 12:34N 60°08' E 026°29'0 0.0
2014-Sep-17 11:31N 60°09' E 026°29'0 0.0
2014-Sep-17 10:31N 60°08' E 026°29'0 0.0
2014-Sep-17 09:31N 60°09' E 026°29'0 0.0
2014-Sep-17 08:22N 60°09' E 026°30'0 0.0
2014-Sep-17 07:34N 60°09' E 026°30'0 0.0
2014-Sep-17 06:31N 60°09' E 026°30'0 0.0
2014-Sep-17 05:31N 60°09' E 026°30'0 0.0
2014-Sep-17 04:31N 60°09' E 026°30'0 0.0
2014-Sep-17 03:31N 60°09' E 026°30'0 0.0
2014-Sep-17 02:25N 60°09' E 026°30'0 0.0
2014-Sep-17 01:31N 60°08' E 026°30'0 0.0
2014-Sep-17 00:31N 60°08' E 026°30'0 0.0
2014-Sep-16 23:31N 60°08' E 026°30'0 0.0
2014-Sep-16 22:31N 60°09' E 026°30'0 0.0
2014-Sep-16 21:31N 60°09' E 026°30'0 0.0
2014-Sep-16 20:31N 60°09' E 026°30'0 0.0
2014-Sep-16 19:33N 60°09' E 026°30'4 3.9
2014-Sep-16 18:32N 60°07' E 026°37'1110.1
2014-Sep-16 17:29N 60°01' E 026°54'97 9.5
2014-Sep-16 07:13N 59°54' E 030°08'2 2.4
2014-Sep-16 06:33N 59°53' E 030°11'0 0.0
2014-Sep-16 05:33N 59°53' E 030°11'0 0.0
2014-Sep-16 04:31N 59°53' E 030°11'0 0.0
2014-Sep-16 03:31N 59°53' E 030°11'0 0.0
2014-Sep-16 02:31N 59°53' E 030°11'0 0.0
2014-Sep-16 01:31N 59°53' E 030°11'0 0.0
2014-Sep-16 00:31N 59°53' E 030°11'0 0.0
2014-Sep-15 23:31N 59°53' E 030°11'0 0.0
2014-Sep-15 21:31N 59°53' E 030°11'0 0.0
2014-Sep-15 20:31N 59°53' E 030°11'0 0.0
2014-Sep-15 19:31N 59°53' E 030°11'0 0.0
2014-Sep-15 18:31N 59°53' E 030°11'0 0.0
2014-Sep-15 17:28N 59°53' E 030°11'0 0.0
2014-Sep-15 16:28N 59°53' E 030°11'0 0.0
2014-Sep-15 15:28N 59°53' E 030°11'0 0.0
2014-Sep-15 14:25N 59°53' E 030°11'0 0.0
2014-Sep-15 13:10N 59°53' E 030°11'0 0.0
2014-Sep-15 12:31N 59°53' E 030°11'0 0.0
2014-Sep-15 10:28N 59°53' E 030°11'0 0.0
2014-Sep-15 09:10N 59°53' E 030°11'0 0.0
2014-Sep-15 04:31N 59°53' E 030°11'0 0.0
2014-Sep-15 03:31N 59°53' E 030°11'0 0.0
2014-Sep-15 02:28N 59°53' E 030°11'3 3.2
2014-Sep-15 01:32N 59°54' E 030°06'92 4.1
2014-Sep-14 03:21N 59°58' E 027°03'910.0
2014-Sep-14 02:29N 59°59' E 026°45'9 9.5
2014-Sep-14 01:33N 59°58' E 026°28'50 9.7
2014-Sep-13 20:26N 59°46' E 024°52'910.0
2014-Sep-13 19:33N 59°45' E 024°35'10 9.6
2014-Sep-13 18:33N 59°43' E 024°16'9 9.3
2014-Sep-13 17:33N 59°42' E 023°58'9 9.2
2014-Sep-13 16:32N 59°40' E 023°39'10 9.3
2014-Sep-13 15:29N 59°39' E 023°20'8 8.9
2014-Sep-13 14:33N 59°37' E 023°04'12 9.1
2014-Sep-13 13:17N 59°36' E 022°42'25 9.1
2014-Sep-13 10:33N 59°34' E 021°52'9 9.0
2014-Sep-13 09:34N 59°34' E 021°35'9 8.9
2014-Sep-13 08:33N 59°41' E 021°23'9 9.0
2014-Sep-13 07:33N 59°50' E 021°23'4 0.1
2014-Sep-12 06:34N 59°52' E 021°28'1010.2
2014-Sep-12 05:34N 59°43' E 021°21'1212.1
2014-Sep-12 04:34N 59°34' E 021°38'4312.3
2014-Sep-12 01:04N 59°39' E 023°02'713.3
2014-Sep-12 00:33N 59°40' E 023°16'1312.7
2014-Sep-11 23:33N 59°43' E 023°41'1312.7
2014-Sep-11 22:34N 59°45' E 024°05'1312.8
2014-Sep-11 21:34N 59°48' E 024°30'2512.7
2014-Sep-11 19:33N 59°53' E 025°20'1312.6
2014-Sep-11 18:33N 59°56' E 025°44'1312.7
2014-Sep-11 17:33N 59°59' E 026°09'1312.8
2014-Sep-11 16:33N 60°01' E 026°34'1312.8
2014-Sep-11 15:33N 59°60' E 026°59'2 0.1
2014-Sep-09 22:26N 59°58' E 027°02'1011.6
2014-Sep-09 21:33N 59°59' E 026°42'1211.8
2014-Sep-09 20:33N 59°57' E 026°19'4110.3
2014-Sep-09 16:33N 60°04' E 024°58'7 2.3
2014-Sep-09 13:33N 60°11' E 024°58'0 0.0
2014-Sep-09 12:33N 60°11' E 024°58'0 0.0
2014-Sep-09 11:24N 60°11' E 024°58'0 0.0
2014-Sep-09 06:24N 60°11' E 024°58'0 0.0
2014-Sep-09 05:24N 60°11' E 024°58'0 0.0
2014-Sep-09 04:33N 60°11' E 024°58'0 0.0
2014-Sep-09 03:30N 60°11' E 024°58'0 0.0
2014-Sep-08 19:24N 60°11' E 024°58'0 0.0
2014-Sep-08 17:18N 60°11' E 024°58'0 0.0
2014-Sep-08 16:15N 60°11' E 024°58'0 0.0
2014-Sep-08 15:33N 60°11' E 024°58'0 0.0
2014-Sep-08 14:30N 60°11' E 024°58'0 0.0
2014-Sep-08 13:30N 60°11' E 024°58'2 2.5
2014-Sep-08 12:33N 60°09' E 024°60'10 9.6
2014-Sep-08 11:34N 59°60' E 025°06'1212.0
2014-Sep-08 10:33N 59°57' E 025°29'1313.0
2014-Sep-08 09:33N 59°57' E 025°55'1413.7
2014-Sep-08 08:33N 59°60' E 026°22'1413.6
2014-Sep-08 07:33N 60°00' E 026°49'1313.0
2014-Sep-08 06:32N 60°03' E 027°15'  

Dump ship's entire track history